createdAt,value
2022-10-17T00:01:05.801Z,4.45
2022-10-17T00:03:33.604Z,4.35
2022-10-17T00:06:05.975Z,4.30
2022-10-17T00:08:34.243Z,4.32
2022-10-17T00:11:05.054Z,4.57
2022-10-17T00:15:59.899Z,4.07
2022-10-17T00:18:26.741Z,4.60
2022-10-17T00:20:53.510Z,4.57
2022-10-17T00:23:20.378Z,4.72
2022-10-17T00:25:47.199Z,4.03
2022-10-17T00:28:15.467Z,4.50
2022-10-17T00:30:42.692Z,4.35
2022-10-17T00:33:09.645Z,4.70
2022-10-17T00:35:36.448Z,4.68
2022-10-17T00:38:03.430Z,4.72
2022-10-17T00:40:32.117Z,4.75
2022-10-17T00:42:59.002Z,4.65
2022-10-17T00:45:34.227Z,4.72
2022-10-17T00:48:07.993Z,4.38
2022-10-17T00:50:36.500Z,4.70
2022-10-17T00:53:06.018Z,4.57
2022-10-17T00:55:53.927Z,4.95
2022-10-17T00:58:21.609Z,4.43
2022-10-17T01:00:48.768Z,4.82
2022-10-17T01:03:16.298Z,4.50
2022-10-17T01:05:43.240Z,4.50
2022-10-17T01:08:13.965Z,5.28
2022-10-17T01:13:43.375Z,4.80
2022-10-17T01:16:19.269Z,4.50
2022-10-17T01:19:26.857Z,4.55
2022-10-17T01:22:11.852Z,4.72
2022-10-17T01:25:20.300Z,4.78
2022-10-17T01:28:09.532Z,4.43
2022-10-17T01:30:50.598Z,4.53
2022-10-17T01:33:25.145Z,4.88
2022-10-17T01:36:04.814Z,4.70
2022-10-17T01:38:44.480Z,4.82
2022-10-17T01:41:28.002Z,4.63
2022-10-17T01:44:09.211Z,4.50
2022-10-17T01:46:41.786Z,4.78
2022-10-17T01:49:11.831Z,4.95
2022-10-17T01:51:45.853Z,4.93
2022-10-17T01:54:22.367Z,4.80
2022-10-17T01:56:55.219Z,4.70
2022-10-17T01:59:25.788Z,5.55
2022-10-17T02:01:55.534Z,4.93
2022-10-17T02:04:22.695Z,5.00
2022-10-17T02:06:52.083Z,5.00
2022-10-17T02:09:29.933Z,4.95
2022-10-17T02:12:15.494Z,4.35
2022-10-17T02:14:54.978Z,4.95
2022-10-17T02:17:34.214Z,4.95
2022-10-17T02:20:20.115Z,5.40
2022-10-17T02:22:59.708Z,5.72
2022-10-17T02:25:49.149Z,4.55
2022-10-17T02:28:31.637Z,5.18
2022-10-17T02:31:16.103Z,4.85
2022-10-17T02:34:06.896Z,5.13
2022-10-17T02:36:39.468Z,4.72
2022-10-17T02:39:09.379Z,4.72
2022-10-17T02:41:41.248Z,4.93
2022-10-17T02:44:09.743Z,4.82
2022-10-17T02:46:39.508Z,5.13
2022-10-17T02:49:16.893Z,4.53
2022-10-17T02:54:38.576Z,4.35
2022-10-17T02:57:17.058Z,4.78
2022-10-17T02:59:45.807Z,5.30
2022-10-17T03:02:13.743Z,5.40
2022-10-17T03:04:52.915Z,5.22
2022-10-17T03:07:19.607Z,5.13
2022-10-17T03:09:46.664Z,4.88
2022-10-17T03:12:13.590Z,5.28
2022-10-17T03:14:40.447Z,4.90
2022-10-17T03:17:11.165Z,4.93
2022-10-17T03:19:44.063Z,4.57
2022-10-17T03:22:11.022Z,4.63
2022-10-17T03:24:37.927Z,5.07
2022-10-17T03:27:04.876Z,4.97
2022-10-17T03:29:31.879Z,4.68
2022-10-17T03:32:01.747Z,4.78
2022-10-17T03:34:28.786Z,5.18
2022-10-17T03:36:56.866Z,4.35
2022-10-17T03:39:23.714Z,4.75
2022-10-17T03:41:55.896Z,5.07
2022-10-17T03:44:23.070Z,4.90
2022-10-17T03:46:50.183Z,4.90
2022-10-17T03:49:18.317Z,5.05
2022-10-17T03:51:45.587Z,5.00
2022-10-17T03:54:13.508Z,5.00
2022-10-17T03:56:43.840Z,5.03
2022-10-17T03:59:20.381Z,4.50
2022-10-17T04:01:49.862Z,4.38
2022-10-17T04:04:17.414Z,4.55
2022-10-17T04:06:44.398Z,4.78
2022-10-17T04:09:11.826Z,4.13
2022-10-17T04:11:46.592Z,4.82
2022-10-17T04:14:15.011Z,4.63
2022-10-17T04:16:42.084Z,4.60
2022-10-17T04:19:13.219Z,4.22
2022-10-17T04:21:43.555Z,4.32
2022-10-17T04:24:12.221Z,4.63
2022-10-17T04:26:39.115Z,4.55
2022-10-17T04:29:06.620Z,3.85
2022-10-17T04:31:44.827Z,4.60
2022-10-17T04:34:15.661Z,4.80
2022-10-17T04:39:11.558Z,4.30
2022-10-17T04:41:39.068Z,4.70
2022-10-17T04:44:07.188Z,4.90
2022-10-17T04:46:34.860Z,4.38
2022-10-17T04:49:03.376Z,4.30
2022-10-17T04:51:30.240Z,4.65
2022-10-17T04:57:01.836Z,4.63
2022-10-17T04:59:33.998Z,3.90
2022-10-17T05:02:00.541Z,4.15
2022-10-17T05:04:27.025Z,4.38
2022-10-17T05:06:53.538Z,4.30
2022-10-17T05:09:19.961Z,3.97
2022-10-17T05:11:46.484Z,4.40
2022-10-17T05:14:13.196Z,4.47
2022-10-17T05:16:39.690Z,5.28
2022-10-17T05:19:06.214Z,4.78
2022-10-17T05:24:09.163Z,4.47
2022-10-17T05:26:35.825Z,4.68
2022-10-17T05:29:03.011Z,4.43
2022-10-17T05:31:30.793Z,4.45
2022-10-17T05:34:02.477Z,4.25
2022-10-17T05:36:29.615Z,4.43
2022-10-17T05:38:56.019Z,4.40
2022-10-17T05:41:22.848Z,4.82
2022-10-17T05:43:50.205Z,4.22
2022-10-17T05:46:17.286Z,4.40
2022-10-17T05:48:43.739Z,4.40
2022-10-17T05:51:10.643Z,4.85
2022-10-17T05:53:39.312Z,4.97
2022-10-17T05:56:07.974Z,4.40
2022-10-17T05:58:52.290Z,4.60
2022-10-17T06:01:20.225Z,4.57
2022-10-17T06:03:46.731Z,4.40
2022-10-17T06:06:14.750Z,5.53
2022-10-17T06:08:41.813Z,7.60
2022-10-17T06:11:10.255Z,7.05
2022-10-17T06:13:38.190Z,5.38
2022-10-17T06:16:04.967Z,5.07
2022-10-17T06:18:31.420Z,5.00
2022-10-17T06:21:06.383Z,5.30
2022-10-17T06:23:33.392Z,4.35
2022-10-17T06:26:06.477Z,4.88
2022-10-17T06:28:33.485Z,4.68
2022-10-17T06:31:03.765Z,4.22
2022-10-17T06:33:30.237Z,5.03
2022-10-17T06:35:57.515Z,4.93
2022-10-17T06:38:23.983Z,4.72
2022-10-17T06:40:50.451Z,4.63
2022-10-17T06:43:16.958Z,4.28
2022-10-17T06:45:46.389Z,4.82
2022-10-17T06:48:13.047Z,4.60
2022-10-17T06:50:39.745Z,4.70
2022-10-17T06:53:06.219Z,4.53
2022-10-17T06:55:33.109Z,4.15
2022-10-17T06:57:59.600Z,4.00
2022-10-17T07:00:26.793Z,4.25
2022-10-17T07:02:53.368Z,3.78
2022-10-17T07:05:19.844Z,4.40
2022-10-17T07:07:48.485Z,3.60
2022-10-17T07:10:17.606Z,4.65
2022-10-17T07:12:45.689Z,4.97
2022-10-17T07:15:12.423Z,4.00
2022-10-17T07:17:38.957Z,5.88
2022-10-17T07:20:06.007Z,4.18
2022-10-17T07:22:32.635Z,4.07
2022-10-17T07:24:59.359Z,3.92
2022-10-17T07:27:26.026Z,7.72
2022-10-17T07:29:52.593Z,4.40
2022-10-17T07:32:19.182Z,4.40
2022-10-17T07:34:45.590Z,3.92
2022-10-17T07:37:12.457Z,3.50
2022-10-17T07:39:40.073Z,4.03
2022-10-17T07:42:07.683Z,3.80
2022-10-17T07:44:35.543Z,3.55
2022-10-17T07:47:02.269Z,3.42
2022-10-17T07:49:29.378Z,3.50
2022-10-17T07:51:56.191Z,4.47
2022-10-17T07:54:22.945Z,4.78
2022-10-17T07:56:50.646Z,3.30
2022-10-17T07:59:20.500Z,3.35
2022-10-17T08:01:53.142Z,3.30
2022-10-17T08:04:19.863Z,2.75
2022-10-17T08:06:46.398Z,3.00
2022-10-17T08:09:12.893Z,3.00
2022-10-17T08:11:39.805Z,3.28
2022-10-17T08:14:06.922Z,3.20
2022-10-17T08:16:33.481Z,3.55
2022-10-17T08:19:00.831Z,3.38
2022-10-17T08:21:27.705Z,3.55
2022-10-17T08:23:54.463Z,3.72
2022-10-17T08:26:21.252Z,3.30
2022-10-17T08:28:50.460Z,3.20
2022-10-17T08:31:24.664Z,3.40
2022-10-17T08:33:51.851Z,3.33
2022-10-17T08:36:20.892Z,3.58
2022-10-17T08:38:52.432Z,3.20
2022-10-17T08:41:25.967Z,3.83
2022-10-17T08:44:01.325Z,3.10
2022-10-17T08:46:34.814Z,3.55
2022-10-17T08:49:06.508Z,3.17
2022-10-17T08:51:38.630Z,3.28
2022-10-17T08:54:11.151Z,3.40
2022-10-17T08:56:48.927Z,3.00
2022-10-17T08:59:28.643Z,3.20
2022-10-17T09:02:13.976Z,2.70
2022-10-17T09:05:05.404Z,2.80
2022-10-17T09:07:57.206Z,3.10
2022-10-17T09:10:56.204Z,4.00
2022-10-17T09:13:50.334Z,3.17
2022-10-17T09:16:32.119Z,3.30
2022-10-17T09:19:13.120Z,3.33
2022-10-17T09:21:49.516Z,2.80
2022-10-17T09:24:53.825Z,4.20
2022-10-17T09:27:28.436Z,3.33
2022-10-17T09:30:40.101Z,3.03
2022-10-17T09:33:34.389Z,3.30
2022-10-17T09:36:13.199Z,3.13
2022-10-17T09:38:47.596Z,2.60
2022-10-17T09:44:23.062Z,3.00
2022-10-17T09:47:19.350Z,2.90
2022-10-17T09:49:47.916Z,3.65
2022-10-17T09:52:40.206Z,3.03
2022-10-17T09:55:06.903Z,3.60
2022-10-17T09:57:55.846Z,3.10
2022-10-17T10:00:28.773Z,3.08
2022-10-17T10:03:30.800Z,7.78
2022-10-17T10:06:03.974Z,3.10
2022-10-17T10:08:36.969Z,2.80
2022-10-17T10:11:13.404Z,3.75
2022-10-17T10:16:19.736Z,4.93
2022-10-17T10:18:50.078Z,5.18
2022-10-17T10:21:23.620Z,3.60
2022-10-17T10:24:13.848Z,5.82
2022-10-17T10:26:49.032Z,4.65
2022-10-17T10:29:37.537Z,3.85
2022-10-17T10:32:16.451Z,5.13
2022-10-17T10:34:58.570Z,4.60
2022-10-17T10:37:44.665Z,3.30
2022-10-17T10:40:26.111Z,2.90
2022-10-17T10:42:55.301Z,3.00
2022-10-17T10:45:52.290Z,3.40
2022-10-17T10:48:49.458Z,4.10
2022-10-17T10:51:21.506Z,4.35
2022-10-17T10:54:03.512Z,4.05
2022-10-17T10:56:37.093Z,3.55
2022-10-17T10:59:19.118Z,3.60
2022-10-17T11:01:45.712Z,3.30
2022-10-17T11:04:27.498Z,3.28
2022-10-17T11:07:20.465Z,3.33
2022-10-17T11:09:54.865Z,3.30
2022-10-17T11:12:45.868Z,3.25
2022-10-17T11:16:01.366Z,3.78
2022-10-17T11:18:58.076Z,3.00
2022-10-17T11:22:15.167Z,5.32
2022-10-17T11:24:48.120Z,4.00
2022-10-17T11:27:15.102Z,3.65
2022-10-17T11:29:46.984Z,3.60
2022-10-17T11:35:16.917Z,4.60
2022-10-17T11:37:50.481Z,4.40
2022-10-17T11:40:30.664Z,4.15
2022-10-17T11:43:19.972Z,3.78
2022-10-17T11:45:52.980Z,4.82
2022-10-17T11:48:48.337Z,3.90
2022-10-17T11:54:25.131Z,3.80
2022-10-17T11:57:42.008Z,3.80
2022-10-17T12:00:21.262Z,3.72
2022-10-17T12:05:49.664Z,4.80
2022-10-17T12:08:34.803Z,3.67
2022-10-17T12:11:15.948Z,3.92
2022-10-17T12:13:59.467Z,3.55
2022-10-17T12:16:35.142Z,3.90
2022-10-17T12:19:13.852Z,4.10
2022-10-17T12:25:16.727Z,3.78
2022-10-17T12:27:46.667Z,3.88
2022-10-17T12:30:15.469Z,3.60
2022-10-17T12:33:08.071Z,3.38
2022-10-17T12:35:38.229Z,3.75
2022-10-17T12:40:48.698Z,3.80
2022-10-17T12:43:15.502Z,3.30
2022-10-17T12:45:54.860Z,3.20
2022-10-17T12:48:44.318Z,3.67
2022-10-17T12:51:36.517Z,3.80
2022-10-17T12:54:16.332Z,4.13
2022-10-17T12:56:47.010Z,3.38
2022-10-17T12:59:34.470Z,3.42
2022-10-17T13:02:03.571Z,3.50
2022-10-17T13:04:32.044Z,4.50
2022-10-17T13:07:01.399Z,4.57
2022-10-17T13:09:38.446Z,4.78
2022-10-17T13:12:17.107Z,3.55
2022-10-17T13:14:46.924Z,5.22
2022-10-17T13:17:28.374Z,3.42
2022-10-17T13:19:58.045Z,3.65
2022-10-17T13:22:29.018Z,3.30
2022-10-17T13:25:15.325Z,3.80
2022-10-17T13:27:42.619Z,3.58
2022-10-17T13:30:30.876Z,4.07
2022-10-17T13:33:02.320Z,3.42
2022-10-17T13:35:59.924Z,3.88
2022-10-17T13:38:24.430Z,4.10
2022-10-17T13:40:51.056Z,3.35
2022-10-17T13:43:20.940Z,5.18
2022-10-17T13:45:53.068Z,4.28
2022-10-17T13:48:23.577Z,3.70
2022-10-17T13:50:54.174Z,3.92
2022-10-17T13:53:44.085Z,3.72
2022-10-17T13:59:03.888Z,4.43
2022-10-17T14:01:31.218Z,3.92
2022-10-17T14:04:08.960Z,3.97
2022-10-17T14:06:49.319Z,3.58
2022-10-17T14:09:30.583Z,3.85
2022-10-17T14:12:07.352Z,3.65
2022-10-17T14:17:27.028Z,6.25
2022-10-17T14:20:16.094Z,4.40
2022-10-17T14:22:50.458Z,4.88
2022-10-17T14:25:32.270Z,6.07
2022-10-17T14:28:11.070Z,4.40
2022-10-17T14:30:57.074Z,4.35
2022-10-17T14:33:30.357Z,5.00
2022-10-17T14:35:59.235Z,3.53
2022-10-17T14:38:27.364Z,3.50
2022-10-17T14:41:23.636Z,3.67
2022-10-17T14:43:56.892Z,3.78
2022-10-17T14:46:23.697Z,3.80
2022-10-17T14:49:08.245Z,4.60
2022-10-17T14:51:44.808Z,4.65
2022-10-17T14:54:27.232Z,4.47
2022-10-17T14:56:54.932Z,4.93
2022-10-17T14:59:52.002Z,3.67
2022-10-17T15:02:13.648Z,3.65
2022-10-17T15:04:40.443Z,3.47
2022-10-17T15:07:06.933Z,4.13
2022-10-17T15:09:33.364Z,3.15
2022-10-17T15:12:07.014Z,5.63
2022-10-17T15:14:33.500Z,3.40
2022-10-17T15:17:00.683Z,3.47
2022-10-17T15:19:27.211Z,3.58
2022-10-17T15:21:53.796Z,3.75
2022-10-17T15:24:20.460Z,3.70
2022-10-17T15:26:47.102Z,3.60
2022-10-17T15:29:16.168Z,3.45
2022-10-17T15:31:43.228Z,3.17
2022-10-17T15:34:09.896Z,4.95
2022-10-17T15:36:40.519Z,4.18
2022-10-17T15:39:07.000Z,4.40
2022-10-17T15:41:34.031Z,5.20
2022-10-17T15:44:00.739Z,4.80
2022-10-17T15:46:29.816Z,3.50
2022-10-17T15:48:57.211Z,3.53
2022-10-17T15:51:23.961Z,3.97
2022-10-17T15:53:50.566Z,3.53
2022-10-17T15:56:26.678Z,4.53
2022-10-17T15:58:53.403Z,3.90
2022-10-17T16:01:30.001Z,6.38
2022-10-17T16:03:57.164Z,4.63
2022-10-17T16:06:24.592Z,4.10
2022-10-17T16:08:51.915Z,4.45
2022-10-17T16:11:32.365Z,4.10
2022-10-17T16:14:04.254Z,6.13
2022-10-17T16:16:31.797Z,5.07
2022-10-17T16:18:58.548Z,5.63
2022-10-17T16:21:32.464Z,6.72
2022-10-17T16:24:00.547Z,5.68
2022-10-17T16:26:28.402Z,5.47
2022-10-17T16:28:56.002Z,5.38
2022-10-17T16:31:25.688Z,6.28
2022-10-17T16:33:54.667Z,6.72
2022-10-17T16:36:21.889Z,5.90
2022-10-17T16:38:49.856Z,6.45
2022-10-17T16:41:21.625Z,7.13
2022-10-17T16:43:53.199Z,6.20
2022-10-17T16:46:20.671Z,5.65
2022-10-17T16:48:48.061Z,4.85
2022-10-17T16:51:16.697Z,5.50
2022-10-17T16:53:44.537Z,5.30
2022-10-17T16:56:13.676Z,5.85
2022-10-17T16:58:42.560Z,8.05
2022-10-17T17:01:15.326Z,6.50
2022-10-17T17:03:43.537Z,8.10
2022-10-17T17:06:16.953Z,7.70
2022-10-17T17:08:43.614Z,9.55
2022-10-17T17:11:13.793Z,7.07
2022-10-17T17:13:41.243Z,9.18
2022-10-17T17:16:13.279Z,6.13
2022-10-17T17:18:40.950Z,8.73
2022-10-17T17:21:09.403Z,9.02
2022-10-17T17:23:39.907Z,9.40
2022-10-17T17:28:34.959Z,7.20
2022-10-17T17:31:01.992Z,6.13
2022-10-17T17:33:30.136Z,5.60
2022-10-17T17:36:00.016Z,5.95
2022-10-17T17:38:29.915Z,5.68
2022-10-17T17:40:56.410Z,5.40
2022-10-17T17:43:23.412Z,6.57
2022-10-17T17:45:50.113Z,5.32
2022-10-17T17:48:16.773Z,5.30
2022-10-17T17:50:44.150Z,6.55
2022-10-17T17:53:13.387Z,5.45
2022-10-17T17:55:40.461Z,6.60
2022-10-17T17:58:10.696Z,6.43
2022-10-17T18:00:37.134Z,7.65
2022-10-17T18:03:03.744Z,13.88
2022-10-17T18:05:31.098Z,10.93
2022-10-17T18:07:58.084Z,8.77
2022-10-17T18:10:25.246Z,8.80
2022-10-17T18:12:52.155Z,8.07
2022-10-17T18:15:18.674Z,7.95
2022-10-17T18:17:45.168Z,7.82
2022-10-17T18:20:12.021Z,9.75
2022-10-17T18:22:38.647Z,8.95
2022-10-17T18:25:06.570Z,8.75
2022-10-17T18:27:33.040Z,7.60
2022-10-17T18:29:59.493Z,9.85
2022-10-17T18:32:25.942Z,8.98
2022-10-17T18:34:52.361Z,18.45
2022-10-17T18:37:21.364Z,9.55
2022-10-17T18:39:53.979Z,7.60
2022-10-17T18:42:20.491Z,7.18
2022-10-17T18:44:47.324Z,7.53
2022-10-17T18:47:14.200Z,9.93
2022-10-17T18:49:40.643Z,6.88
2022-10-17T18:52:07.091Z,13.85
2022-10-17T18:54:34.606Z,18.65
2022-10-17T18:57:01.131Z,7.25
2022-10-17T18:59:27.760Z,12.05
2022-10-17T19:01:54.281Z,11.38
2022-10-17T19:04:20.779Z,12.63
2022-10-17T19:06:48.536Z,10.55
2022-10-17T19:09:15.607Z,8.48
2022-10-17T19:11:42.814Z,9.43
2022-10-17T19:14:13.365Z,8.18
2022-10-17T19:16:43.365Z,7.38
2022-10-17T19:19:22.025Z,7.43
2022-10-17T19:21:49.437Z,8.90
2022-10-17T19:24:20.130Z,7.70
2022-10-17T19:26:50.250Z,8.93
2022-10-17T19:29:18.205Z,9.10
2022-10-17T19:31:45.638Z,7.60
2022-10-17T19:34:13.309Z,8.00
2022-10-17T19:36:40.567Z,11.07
2022-10-17T19:39:10.581Z,7.57
2022-10-17T19:41:37.297Z,7.22
2022-10-17T19:44:03.784Z,11.90
2022-10-17T19:46:31.961Z,8.35
2022-10-17T19:48:58.381Z,8.95
2022-10-17T19:51:25.666Z,12.15
2022-10-17T19:53:54.098Z,8.18
2022-10-17T19:56:21.571Z,7.57
2022-10-17T19:58:49.115Z,8.63
2022-10-17T20:01:21.097Z,10.63
2022-10-17T20:03:47.683Z,8.52
2022-10-17T20:06:14.488Z,7.68
2022-10-17T20:08:42.203Z,8.20
2022-10-17T20:11:12.222Z,15.18
2022-10-17T20:13:39.157Z,9.90
2022-10-17T20:16:07.170Z,9.77
2022-10-17T20:18:34.561Z,11.18
2022-10-17T20:21:07.618Z,9.75
2022-10-17T20:23:34.847Z,9.05
2022-10-17T20:26:08.671Z,9.38
2022-10-17T20:28:50.802Z,9.27
2022-10-17T20:31:18.351Z,9.32
2022-10-17T20:33:44.967Z,11.35
2022-10-17T20:36:12.764Z,8.43
2022-10-17T20:38:39.829Z,9.38
2022-10-17T20:41:10.300Z,8.57
2022-10-17T20:43:38.192Z,10.60
2022-10-17T20:46:22.722Z,10.13
2022-10-17T20:48:54.203Z,8.90
2022-10-17T20:51:21.451Z,9.60
2022-10-17T20:53:48.802Z,9.27
2022-10-17T20:56:21.656Z,9.50
2022-10-17T20:58:57.051Z,8.32
2022-10-17T21:01:25.040Z,10.43
2022-10-17T21:03:52.098Z,9.50
2022-10-17T21:06:19.177Z,8.88
2022-10-17T21:08:47.251Z,9.15
2022-10-17T21:11:19.266Z,8.65
2022-10-17T21:13:46.841Z,9.30
2022-10-17T21:16:16.081Z,9.10
2022-10-17T21:18:43.042Z,10.00
2022-10-17T21:21:15.067Z,10.70
2022-10-17T21:23:44.468Z,9.48
2022-10-17T21:26:12.698Z,8.93
2022-10-17T21:28:44.001Z,13.50
2022-10-17T21:31:22.446Z,10.27
2022-10-17T21:33:51.927Z,9.10
2022-10-17T21:36:19.637Z,9.15
2022-10-17T21:38:48.119Z,9.43
2022-10-17T21:41:16.837Z,9.38
2022-10-17T21:43:43.888Z,8.88
2022-10-17T21:46:16.155Z,9.52
2022-10-17T21:48:43.300Z,8.77
2022-10-17T21:51:13.159Z,9.05
2022-10-17T21:53:40.465Z,9.18
2022-10-17T21:56:12.015Z,9.30
2022-10-17T21:58:38.671Z,9.13
2022-10-17T22:01:29.226Z,9.52
2022-10-17T22:03:58.950Z,9.07
2022-10-17T22:06:43.489Z,8.20
2022-10-17T22:09:16.604Z,8.18
2022-10-17T22:11:46.453Z,8.95
2022-10-17T22:14:16.267Z,8.50
2022-10-17T22:16:45.193Z,9.63
2022-10-17T22:19:13.268Z,9.00
2022-10-17T22:21:40.237Z,8.85
2022-10-17T22:24:10.584Z,9.23
2022-10-17T22:26:38.105Z,9.68
2022-10-17T22:29:06.301Z,9.80
2022-10-17T22:31:33.136Z,11.60
2022-10-17T22:34:00.229Z,10.70
2022-10-17T22:36:27.268Z,9.85
2022-10-17T22:38:53.795Z,9.00
2022-10-17T22:41:20.491Z,8.82
2022-10-17T22:43:47.010Z,10.23
2022-10-17T22:46:16.193Z,9.00
2022-10-17T22:48:43.564Z,8.98
2022-10-17T22:51:10.837Z,9.60
2022-10-17T22:53:37.722Z,10.23
2022-10-17T22:56:13.123Z,8.35
2022-10-17T22:58:40.026Z,8.70
2022-10-17T23:01:07.964Z,8.77
2022-10-17T23:03:35.112Z,8.48
2022-10-17T23:06:01.951Z,8.95
2022-10-17T23:08:28.886Z,8.68
2022-10-17T23:10:55.398Z,9.18
2022-10-17T23:13:22.464Z,11.82
2022-10-17T23:15:56.723Z,9.20
2022-10-17T23:18:24.930Z,8.52
2022-10-17T23:20:52.095Z,11.30
2022-10-17T23:23:20.009Z,9.18
2022-10-17T23:25:46.595Z,8.88
2022-10-17T23:28:13.628Z,9.25
2022-10-17T23:30:40.401Z,8.75
2022-10-17T23:33:07.826Z,8.43
2022-10-17T23:35:35.389Z,8.75
2022-10-17T23:38:01.939Z,9.45
2022-10-17T23:40:28.443Z,8.98
2022-10-17T23:42:54.861Z,9.55
2022-10-17T23:45:21.310Z,10.68
2022-10-17T23:47:47.802Z,9.02
2022-10-17T23:50:14.263Z,8.40
2022-10-17T23:52:40.697Z,19.25
2022-10-17T23:55:07.964Z,9.25
2022-10-17T23:57:34.607Z,8.55
